sensor_id;sensor_type;location;lat;lon;timestamp;P1;durP1;ratioP1;P2;durP2;ratioP2
3141;SDS011;1581;51.568;6.998;2022-12-16T00:01:54;58.07;;;30.37;;
3141;SDS011;1581;51.568;6.998;2022-12-16T00:04:23;55.83;;;27.50;;
3141;SDS011;1581;51.568;6.998;2022-12-16T00:06:52;62.90;;;29.80;;
3141;SDS011;1581;51.568;6.998;2022-12-16T00:09:22;68.40;;;29.80;;
3141;SDS011;1581;51.568;6.998;2022-12-16T00:11:50;60.27;;;29.87;;
3141;SDS011;1581;51.568;6.998;2022-12-16T00:14:17;53.90;;;28.43;;
3141;SDS011;1581;51.568;6.998;2022-12-16T00:16:45;56.87;;;28.27;;
3141;SDS011;1581;51.568;6.998;2022-12-16T00:19:13;54.43;;;27.83;;
3141;SDS011;1581;51.568;6.998;2022-12-16T00:21:43;53.87;;;27.10;;
3141;SDS011;1581;51.568;6.998;2022-12-16T00:24:10;59.17;;;30.10;;
3141;SDS011;1581;51.568;6.998;2022-12-16T00:26:39;56.43;;;28.07;;
3141;SDS011;1581;51.568;6.998;2022-12-16T00:29:07;56.13;;;28.90;;
3141;SDS011;1581;51.568;6.998;2022-12-16T00:31:35;61.90;;;28.83;;
3141;SDS011;1581;51.568;6.998;2022-12-16T00:34:03;56.83;;;29.03;;
3141;SDS011;1581;51.568;6.998;2022-12-16T00:36:32;54.67;;;27.97;;
3141;SDS011;1581;51.568;6.998;2022-12-16T00:39:00;63.23;;;28.20;;
3141;SDS011;1581;51.568;6.998;2022-12-16T00:41:27;55.77;;;27.87;;
3141;SDS011;1581;51.568;6.998;2022-12-16T00:44:00;58.40;;;28.10;;
3141;SDS011;1581;51.568;6.998;2022-12-16T00:46:34;58.67;;;28.00;;
3141;SDS011;1581;51.568;6.998;2022-12-16T00:49:02;63.03;;;27.53;;
3141;SDS011;1581;51.568;6.998;2022-12-16T00:51:29;63.63;;;28.77;;
3141;SDS011;1581;51.568;6.998;2022-12-16T00:53:57;62.20;;;28.10;;
3141;SDS011;1581;51.568;6.998;2022-12-16T00:56:25;59.10;;;27.37;;
3141;SDS011;1581;51.568;6.998;2022-12-16T00:58:53;61.53;;;29.50;;
3141;SDS011;1581;51.568;6.998;2022-12-16T01:01:22;55.67;;;27.50;;
3141;SDS011;1581;51.568;6.998;2022-12-16T01:03:54;54.33;;;27.53;;
3141;SDS011;1581;51.568;6.998;2022-12-16T01:06:25;62.50;;;28.20;;
3141;SDS011;1581;51.568;6.998;2022-12-16T01:08:52;56.53;;;27.40;;
3141;SDS011;1581;51.568;6.998;2022-12-16T01:11:20;57.93;;;28.60;;
3141;SDS011;1581;51.568;6.998;2022-12-16T01:13:48;57.97;;;28.57;;
3141;SDS011;1581;51.568;6.998;2022-12-16T01:16:16;58.63;;;29.43;;
3141;SDS011;1581;51.568;6.998;2022-12-16T01:18:45;63.40;;;27.07;;
3141;SDS011;1581;51.568;6.998;2022-12-16T01:21:14;57.70;;;26.67;;
3141;SDS011;1581;51.568;6.998;2022-12-16T01:23:41;56.80;;;27.17;;
3141;SDS011;1581;51.568;6.998;2022-12-16T01:26:10;54.70;;;27.10;;
3141;SDS011;1581;51.568;6.998;2022-12-16T01:28:42;54.17;;;28.03;;
3141;SDS011;1581;51.568;6.998;2022-12-16T01:31:12;57.07;;;26.87;;
3141;SDS011;1581;51.568;6.998;2022-12-16T01:33:42;59.63;;;29.00;;
3141;SDS011;1581;51.568;6.998;2022-12-16T01:36:11;57.87;;;29.00;;
3141;SDS011;1581;51.568;6.998;2022-12-16T01:38:40;55.00;;;27.07;;
3141;SDS011;1581;51.568;6.998;2022-12-16T01:41:09;61.27;;;29.07;;
3141;SDS011;1581;51.568;6.998;2022-12-16T01:43:38;67.83;;;30.77;;
3141;SDS011;1581;51.568;6.998;2022-12-16T01:46:08;60.77;;;28.93;;
3141;SDS011;1581;51.568;6.998;2022-12-16T01:48:47;55.00;;;26.93;;
3141;SDS011;1581;51.568;6.998;2022-12-16T01:51:22;61.40;;;30.80;;
3141;SDS011;1581;51.568;6.998;2022-12-16T01:53:55;63.13;;;30.27;;
3141;SDS011;1581;51.568;6.998;2022-12-16T01:56:29;59.90;;;29.43;;
3141;SDS011;1581;51.568;6.998;2022-12-16T01:59:00;58.90;;;29.93;;
3141;SDS011;1581;51.568;6.998;2022-12-16T02:01:29;69.17;;;30.20;;
3141;SDS011;1581;51.568;6.998;2022-12-16T02:03:57;65.57;;;29.97;;
3141;SDS011;1581;51.568;6.998;2022-12-16T02:06:30;75.33;;;31.20;;
3141;SDS011;1581;51.568;6.998;2022-12-16T02:08:59;70.57;;;30.50;;
3141;SDS011;1581;51.568;6.998;2022-12-16T02:11:35;61.77;;;31.07;;
3141;SDS011;1581;51.568;6.998;2022-12-16T02:14:37;61.70;;;29.20;;
3141;SDS011;1581;51.568;6.998;2022-12-16T02:17:23;61.43;;;29.43;;
3141;SDS011;1581;51.568;6.998;2022-12-16T02:20:21;65.40;;;32.00;;
3141;SDS011;1581;51.568;6.998;2022-12-16T02:30:25;70.57;;;30.17;;
3141;SDS011;1581;51.568;6.998;2022-12-16T02:33:53;64.60;;;30.60;;
3141;SDS011;1581;51.568;6.998;2022-12-16T02:36:45;60.30;;;30.03;;
3141;SDS011;1581;51.568;6.998;2022-12-16T02:39:28;62.93;;;30.20;;
3141;SDS011;1581;51.568;6.998;2022-12-16T02:42:05;68.10;;;31.77;;
3141;SDS011;1581;51.568;6.998;2022-12-16T02:44:40;57.53;;;30.50;;
3141;SDS011;1581;51.568;6.998;2022-12-16T02:47:19;67.63;;;31.47;;
3141;SDS011;1581;51.568;6.998;2022-12-16T02:49:48;60.87;;;29.50;;
3141;SDS011;1581;51.568;6.998;2022-12-16T02:52:21;64.03;;;31.07;;
3141;SDS011;1581;51.568;6.998;2022-12-16T02:54:54;67.00;;;31.97;;
3141;SDS011;1581;51.568;6.998;2022-12-16T02:57:38;68.70;;;31.30;;
3141;SDS011;1581;51.568;6.998;2022-12-16T03:00:31;61.80;;;31.57;;
3141;SDS011;1581;51.568;6.998;2022-12-16T03:03:12;64.67;;;30.87;;
3141;SDS011;1581;51.568;6.998;2022-12-16T03:05:47;63.43;;;32.10;;
3141;SDS011;1581;51.568;6.998;2022-12-16T03:08:18;58.57;;;32.43;;
3141;SDS011;1581;51.568;6.998;2022-12-16T03:10:51;67.90;;;30.23;;
3141;SDS011;1581;51.568;6.998;2022-12-16T03:13:34;67.83;;;31.40;;
3141;SDS011;1581;51.568;6.998;2022-12-16T03:16:05;55.37;;;28.07;;
3141;SDS011;1581;51.568;6.998;2022-12-16T03:18:37;58.13;;;28.83;;
3141;SDS011;1581;51.568;6.998;2022-12-16T03:21:09;62.43;;;28.37;;
3141;SDS011;1581;51.568;6.998;2022-12-16T03:23:40;64.33;;;31.73;;
3141;SDS011;1581;51.568;6.998;2022-12-16T03:26:16;61.20;;;30.00;;
3141;SDS011;1581;51.568;6.998;2022-12-16T03:28:49;64.80;;;29.87;;
3141;SDS011;1581;51.568;6.998;2022-12-16T03:31:26;65.27;;;29.03;;
3141;SDS011;1581;51.568;6.998;2022-12-16T03:34:06;63.13;;;29.87;;
3141;SDS011;1581;51.568;6.998;2022-12-16T03:36:42;58.63;;;29.13;;
3141;SDS011;1581;51.568;6.998;2022-12-16T03:39:14;64.70;;;30.20;;
3141;SDS011;1581;51.568;6.998;2022-12-16T03:41:45;59.53;;;30.00;;
3141;SDS011;1581;51.568;6.998;2022-12-16T03:44:15;56.10;;;29.30;;
3141;SDS011;1581;51.568;6.998;2022-12-16T03:46:43;59.77;;;29.07;;
3141;SDS011;1581;51.568;6.998;2022-12-16T03:49:13;65.03;;;29.07;;
3141;SDS011;1581;51.568;6.998;2022-12-16T03:51:40;62.70;;;28.63;;
3141;SDS011;1581;51.568;6.998;2022-12-16T03:54:08;57.87;;;28.50;;
3141;SDS011;1581;51.568;6.998;2022-12-16T03:56:38;60.87;;;29.43;;
3141;SDS011;1581;51.568;6.998;2022-12-16T03:59:05;59.40;;;28.00;;
3141;SDS011;1581;51.568;6.998;2022-12-16T04:01:33;58.23;;;29.37;;
3141;SDS011;1581;51.568;6.998;2022-12-16T04:04:01;60.37;;;27.67;;
3141;SDS011;1581;51.568;6.998;2022-12-16T04:06:30;57.33;;;27.20;;
3141;SDS011;1581;51.568;6.998;2022-12-16T04:08:58;60.33;;;28.43;;
3141;SDS011;1581;51.568;6.998;2022-12-16T04:11:28;61.37;;;27.17;;
3141;SDS011;1581;51.568;6.998;2022-12-16T04:14:13;57.20;;;24.30;;
3141;SDS011;1581;51.568;6.998;2022-12-16T04:16:58;61.20;;;27.80;;
3141;SDS011;1581;51.568;6.998;2022-12-16T04:19:43;59.20;;;27.77;;
3141;SDS011;1581;51.568;6.998;2022-12-16T04:22:32;60.03;;;27.73;;
3141;SDS011;1581;51.568;6.998;2022-12-16T04:25:20;55.30;;;26.07;;
3141;SDS011;1581;51.568;6.998;2022-12-16T04:27:50;66.00;;;30.73;;
3141;SDS011;1581;51.568;6.998;2022-12-16T04:30:18;55.90;;;28.00;;
3141;SDS011;1581;51.568;6.998;2022-12-16T04:32:48;59.53;;;26.67;;
3141;SDS011;1581;51.568;6.998;2022-12-16T04:35:36;58.00;;;27.60;;
3141;SDS011;1581;51.568;6.998;2022-12-16T04:38:23;56.90;;;26.77;;
3141;SDS011;1581;51.568;6.998;2022-12-16T04:41:09;52.60;;;25.97;;
3141;SDS011;1581;51.568;6.998;2022-12-16T04:43:54;57.80;;;27.70;;
3141;SDS011;1581;51.568;6.998;2022-12-16T04:46:39;57.50;;;26.70;;
3141;SDS011;1581;51.568;6.998;2022-12-16T04:49:24;55.93;;;26.80;;
3141;SDS011;1581;51.568;6.998;2022-12-16T04:52:09;49.90;;;24.33;;
3141;SDS011;1581;51.568;6.998;2022-12-16T04:54:56;55.60;;;25.87;;
3141;SDS011;1581;51.568;6.998;2022-12-16T04:57:42;49.53;;;24.50;;
3141;SDS011;1581;51.568;6.998;2022-12-16T05:00:30;58.20;;;27.90;;
3141;SDS011;1581;51.568;6.998;2022-12-16T05:03:15;56.33;;;25.97;;
3141;SDS011;1581;51.568;6.998;2022-12-16T05:06:00;53.53;;;25.37;;
3141;SDS011;1581;51.568;6.998;2022-12-16T05:08:47;56.50;;;24.33;;
3141;SDS011;1581;51.568;6.998;2022-12-16T05:11:34;48.50;;;24.50;;
3141;SDS011;1581;51.568;6.998;2022-12-16T05:14:22;57.13;;;26.63;;
3141;SDS011;1581;51.568;6.998;2022-12-16T05:17:07;63.13;;;27.23;;
3141;SDS011;1581;51.568;6.998;2022-12-16T05:19:53;54.60;;;24.30;;
3141;SDS011;1581;51.568;6.998;2022-12-16T05:22:38;55.47;;;25.10;;
3141;SDS011;1581;51.568;6.998;2022-12-16T05:25:24;52.60;;;25.27;;
3141;SDS011;1581;51.568;6.998;2022-12-16T05:28:10;50.90;;;26.13;;
3141;SDS011;1581;51.568;6.998;2022-12-16T05:30:56;58.23;;;27.90;;
3141;SDS011;1581;51.568;6.998;2022-12-16T05:33:41;47.80;;;25.90;;
3141;SDS011;1581;51.568;6.998;2022-12-16T05:36:26;48.23;;;25.70;;
3141;SDS011;1581;51.568;6.998;2022-12-16T05:39:11;50.77;;;25.97;;
3141;SDS011;1581;51.568;6.998;2022-12-16T05:41:56;60.70;;;28.03;;
3141;SDS011;1581;51.568;6.998;2022-12-16T05:44:42;57.50;;;24.97;;
3141;SDS011;1581;51.568;6.998;2022-12-16T05:47:27;51.83;;;25.30;;
3141;SDS011;1581;51.568;6.998;2022-12-16T05:50:12;49.50;;;26.23;;
3141;SDS011;1581;51.568;6.998;2022-12-16T05:52:59;56.60;;;25.30;;
3141;SDS011;1581;51.568;6.998;2022-12-16T05:55:44;52.40;;;25.53;;
3141;SDS011;1581;51.568;6.998;2022-12-16T05:58:29;55.13;;;26.17;;
3141;SDS011;1581;51.568;6.998;2022-12-16T06:01:16;48.83;;;24.67;;
3141;SDS011;1581;51.568;6.998;2022-12-16T06:04:00;56.23;;;26.83;;
3141;SDS011;1581;51.568;6.998;2022-12-16T06:06:46;56.10;;;25.30;;
3141;SDS011;1581;51.568;6.998;2022-12-16T06:09:31;57.53;;;26.77;;
3141;SDS011;1581;51.568;6.998;2022-12-16T06:12:16;54.70;;;27.50;;
3141;SDS011;1581;51.568;6.998;2022-12-16T06:15:01;51.87;;;26.40;;
3141;SDS011;1581;51.568;6.998;2022-12-16T06:17:53;59.87;;;26.53;;
3141;SDS011;1581;51.568;6.998;2022-12-16T06:20:38;57.83;;;25.97;;
3141;SDS011;1581;51.568;6.998;2022-12-16T06:23:23;47.33;;;24.00;;
3141;SDS011;1581;51.568;6.998;2022-12-16T06:26:08;49.50;;;24.23;;
3141;SDS011;1581;51.568;6.998;2022-12-16T06:28:53;53.73;;;25.97;;
3141;SDS011;1581;51.568;6.998;2022-12-16T06:31:40;51.67;;;26.50;;
3141;SDS011;1581;51.568;6.998;2022-12-16T06:34:26;56.27;;;27.57;;
3141;SDS011;1581;51.568;6.998;2022-12-16T06:37:10;55.83;;;26.13;;
3141;SDS011;1581;51.568;6.998;2022-12-16T06:39:55;54.37;;;27.00;;
3141;SDS011;1581;51.568;6.998;2022-12-16T06:42:40;48.63;;;23.33;;
3141;SDS011;1581;51.568;6.998;2022-12-16T06:45:25;55.93;;;26.80;;
3141;SDS011;1581;51.568;6.998;2022-12-16T06:48:10;51.40;;;25.80;;
3141;SDS011;1581;51.568;6.998;2022-12-16T06:50:57;57.73;;;26.60;;
3141;SDS011;1581;51.568;6.998;2022-12-16T06:53:42;54.97;;;26.60;;
3141;SDS011;1581;51.568;6.998;2022-12-16T06:56:27;55.37;;;27.77;;
3141;SDS011;1581;51.568;6.998;2022-12-16T06:59:12;56.90;;;26.57;;
3141;SDS011;1581;51.568;6.998;2022-12-16T07:01:56;55.10;;;27.00;;
3141;SDS011;1581;51.568;6.998;2022-12-16T07:04:41;54.80;;;26.53;;
3141;SDS011;1581;51.568;6.998;2022-12-16T07:07:28;58.60;;;27.27;;
3141;SDS011;1581;51.568;6.998;2022-12-16T07:10:13;60.20;;;26.03;;
3141;SDS011;1581;51.568;6.998;2022-12-16T07:12:58;54.23;;;28.17;;
3141;SDS011;1581;51.568;6.998;2022-12-16T07:15:44;62.20;;;27.93;;
3141;SDS011;1581;51.568;6.998;2022-12-16T07:18:29;57.23;;;27.13;;
3141;SDS011;1581;51.568;6.998;2022-12-16T07:21:14;62.47;;;29.10;;
3141;SDS011;1581;51.568;6.998;2022-12-16T07:24:01;64.53;;;29.20;;
3141;SDS011;1581;51.568;6.998;2022-12-16T07:26:46;64.40;;;29.40;;
3141;SDS011;1581;51.568;6.998;2022-12-16T07:29:30;55.30;;;26.67;;
3141;SDS011;1581;51.568;6.998;2022-12-16T07:32:15;61.97;;;29.13;;
3141;SDS011;1581;51.568;6.998;2022-12-16T07:35:00;57.40;;;28.30;;
3141;SDS011;1581;51.568;6.998;2022-12-16T07:37:45;52.90;;;28.57;;
3141;SDS011;1581;51.568;6.998;2022-12-16T07:40:32;59.70;;;30.00;;
3141;SDS011;1581;51.568;6.998;2022-12-16T07:43:16;59.83;;;28.77;;
3141;SDS011;1581;51.568;6.998;2022-12-16T07:46:01;73.17;;;34.87;;
3141;SDS011;1581;51.568;6.998;2022-12-16T07:48:46;102.77;;;45.00;;
3141;SDS011;1581;51.568;6.998;2022-12-16T07:51:31;95.97;;;46.30;;
3141;SDS011;1581;51.568;6.998;2022-12-16T07:54:16;107.17;;;46.50;;
3141;SDS011;1581;51.568;6.998;2022-12-16T07:57:03;92.37;;;42.50;;
3141;SDS011;1581;51.568;6.998;2022-12-16T07:59:48;81.63;;;38.70;;
3141;SDS011;1581;51.568;6.998;2022-12-16T08:02:33;84.73;;;38.30;;
3141;SDS011;1581;51.568;6.998;2022-12-16T08:05:18;71.67;;;35.27;;
3141;SDS011;1581;51.568;6.998;2022-12-16T08:08:03;74.17;;;35.23;;
3141;SDS011;1581;51.568;6.998;2022-12-16T08:10:48;78.70;;;37.00;;
3141;SDS011;1581;51.568;6.998;2022-12-16T08:13:35;73.40;;;34.50;;
3141;SDS011;1581;51.568;6.998;2022-12-16T08:16:20;71.40;;;34.97;;
3141;SDS011;1581;51.568;6.998;2022-12-16T08:19:05;65.60;;;31.67;;
3141;SDS011;1581;51.568;6.998;2022-12-16T08:21:49;68.87;;;32.80;;
3141;SDS011;1581;51.568;6.998;2022-12-16T08:24:34;75.27;;;34.27;;
3141;SDS011;1581;51.568;6.998;2022-12-16T08:27:19;72.37;;;33.50;;
3141;SDS011;1581;51.568;6.998;2022-12-16T08:30:06;63.67;;;31.30;;
3141;SDS011;1581;51.568;6.998;2022-12-16T08:32:52;68.30;;;32.70;;
3141;SDS011;1581;51.568;6.998;2022-12-16T08:35:37;62.13;;;30.33;;
3141;SDS011;1581;51.568;6.998;2022-12-16T08:38:22;63.50;;;31.10;;
3141;SDS011;1581;51.568;6.998;2022-12-16T08:41:07;77.60;;;31.00;;
3141;SDS011;1581;51.568;6.998;2022-12-16T08:43:52;63.40;;;31.60;;
3141;SDS011;1581;51.568;6.998;2022-12-16T08:46:38;64.87;;;31.20;;
3141;SDS011;1581;51.568;6.998;2022-12-16T08:49:23;60.53;;;29.80;;
3141;SDS011;1581;51.568;6.998;2022-12-16T08:52:08;60.07;;;30.77;;
3141;SDS011;1581;51.568;6.998;2022-12-16T08:54:53;67.47;;;32.47;;
3141;SDS011;1581;51.568;6.998;2022-12-16T08:57:38;64.10;;;31.97;;
3141;SDS011;1581;51.568;6.998;2022-12-16T09:00:23;62.50;;;31.63;;
3141;SDS011;1581;51.568;6.998;2022-12-16T09:03:10;61.83;;;31.17;;
3141;SDS011;1581;51.568;6.998;2022-12-16T09:05:56;71.03;;;31.50;;
3141;SDS011;1581;51.568;6.998;2022-12-16T09:08:41;67.63;;;32.10;;
3141;SDS011;1581;51.568;6.998;2022-12-16T09:11:26;71.43;;;35.73;;
3141;SDS011;1581;51.568;6.998;2022-12-16T09:14:12;84.27;;;35.80;;
3141;SDS011;1581;51.568;6.998;2022-12-16T09:16:57;71.07;;;34.13;;
3141;SDS011;1581;51.568;6.998;2022-12-16T09:19:43;75.53;;;36.10;;
3141;SDS011;1581;51.568;6.998;2022-12-16T09:22:28;82.00;;;35.80;;
3141;SDS011;1581;51.568;6.998;2022-12-16T09:25:13;88.20;;;39.40;;
3141;SDS011;1581;51.568;6.998;2022-12-16T09:27:58;79.40;;;34.90;;
3141;SDS011;1581;51.568;6.998;2022-12-16T09:30:43;74.63;;;36.13;;
3141;SDS011;1581;51.568;6.998;2022-12-16T09:33:28;73.50;;;33.00;;
3141;SDS011;1581;51.568;6.998;2022-12-16T09:36:14;76.80;;;35.10;;
3141;SDS011;1581;51.568;6.998;2022-12-16T09:38:59;76.17;;;34.90;;
3141;SDS011;1581;51.568;6.998;2022-12-16T09:41:44;63.97;;;34.17;;
3141;SDS011;1581;51.568;6.998;2022-12-16T09:44:42;76.33;;;35.07;;
3141;SDS011;1581;51.568;6.998;2022-12-16T09:47:40;70.10;;;34.80;;
3141;SDS011;1581;51.568;6.998;2022-12-16T09:50:33;71.03;;;33.77;;
3141;SDS011;1581;51.568;6.998;2022-12-16T09:53:24;76.03;;;34.80;;
3141;SDS011;1581;51.568;6.998;2022-12-16T09:56:13;65.73;;;31.30;;
3141;SDS011;1581;51.568;6.998;2022-12-16T09:59:04;65.97;;;33.30;;
3141;SDS011;1581;51.568;6.998;2022-12-16T10:01:54;71.80;;;36.00;;
3141;SDS011;1581;51.568;6.998;2022-12-16T10:04:39;76.33;;;35.50;;
3141;SDS011;1581;51.568;6.998;2022-12-16T10:07:31;89.80;;;33.87;;
3141;SDS011;1581;51.568;6.998;2022-12-16T10:10:32;77.40;;;34.73;;
3141;SDS011;1581;51.568;6.998;2022-12-16T10:13:28;119.93;;;42.23;;
3141;SDS011;1581;51.568;6.998;2022-12-16T10:16:24;103.50;;;38.70;;
3141;SDS011;1581;51.568;6.998;2022-12-16T10:19:28;122.43;;;41.80;;
3141;SDS011;1581;51.568;6.998;2022-12-16T10:22:25;126.07;;;40.47;;
3141;SDS011;1581;51.568;6.998;2022-12-16T10:25:16;120.13;;;41.17;;
3141;SDS011;1581;51.568;6.998;2022-12-16T10:28:09;121.57;;;41.47;;
3141;SDS011;1581;51.568;6.998;2022-12-16T10:31:00;128.47;;;39.90;;
3141;SDS011;1581;51.568;6.998;2022-12-16T10:33:46;119.40;;;40.83;;
3141;SDS011;1581;51.568;6.998;2022-12-16T10:36:34;116.10;;;41.60;;
3141;SDS011;1581;51.568;6.998;2022-12-16T10:39:23;108.83;;;42.70;;
3141;SDS011;1581;51.568;6.998;2022-12-16T10:42:17;102.73;;;39.40;;
3141;SDS011;1581;51.568;6.998;2022-12-16T10:45:12;114.23;;;42.03;;
3141;SDS011;1581;51.568;6.998;2022-12-16T10:48:06;126.00;;;41.20;;
3141;SDS011;1581;51.568;6.998;2022-12-16T10:50:53;134.80;;;44.23;;
3141;SDS011;1581;51.568;6.998;2022-12-16T10:53:38;125.90;;;42.03;;
3141;SDS011;1581;51.568;6.998;2022-12-16T10:56:31;133.70;;;43.30;;
3141;SDS011;1581;51.568;6.998;2022-12-16T10:59:34;142.93;;;44.17;;
3141;SDS011;1581;51.568;6.998;2022-12-16T11:02:24;126.43;;;42.70;;
3141;SDS011;1581;51.568;6.998;2022-12-16T11:05:21;132.33;;;43.17;;
3141;SDS011;1581;51.568;6.998;2022-12-16T11:08:23;125.80;;;42.47;;
3141;SDS011;1581;51.568;6.998;2022-12-16T11:11:11;108.97;;;41.03;;
3141;SDS011;1581;51.568;6.998;2022-12-16T11:14:16;139.27;;;41.43;;
3141;SDS011;1581;51.568;6.998;2022-12-16T11:17:13;127.93;;;41.17;;
3141;SDS011;1581;51.568;6.998;2022-12-16T11:20:10;111.80;;;41.77;;
3141;SDS011;1581;51.568;6.998;2022-12-16T11:23:10;107.20;;;38.87;;
3141;SDS011;1581;51.568;6.998;2022-12-16T11:26:03;115.23;;;40.07;;
3141;SDS011;1581;51.568;6.998;2022-12-16T11:29:04;106.13;;;39.60;;
3141;SDS011;1581;51.568;6.998;2022-12-16T11:31:59;110.77;;;38.27;;
3141;SDS011;1581;51.568;6.998;2022-12-16T11:35:01;106.63;;;38.10;;
3141;SDS011;1581;51.568;6.998;2022-12-16T11:37:56;105.53;;;38.23;;
3141;SDS011;1581;51.568;6.998;2022-12-16T11:40:43;122.30;;;40.70;;
3141;SDS011;1581;51.568;6.998;2022-12-16T11:43:28;112.37;;;39.13;;
3141;SDS011;1581;51.568;6.998;2022-12-16T11:46:18;94.50;;;38.17;;
3141;SDS011;1581;51.568;6.998;2022-12-16T11:49:12;96.50;;;37.07;;
3141;SDS011;1581;51.568;6.998;2022-12-16T11:52:04;109.10;;;39.77;;
3141;SDS011;1581;51.568;6.998;2022-12-16T11:54:56;100.70;;;39.70;;
3141;SDS011;1581;51.568;6.998;2022-12-16T11:57:46;98.67;;;38.20;;
3141;SDS011;1581;51.568;6.998;2022-12-16T12:00:41;106.10;;;38.90;;
3141;SDS011;1581;51.568;6.998;2022-12-16T12:03:35;97.60;;;37.77;;
3141;SDS011;1581;51.568;6.998;2022-12-16T12:06:26;103.20;;;39.03;;
3141;SDS011;1581;51.568;6.998;2022-12-16T12:09:20;101.00;;;37.83;;
3141;SDS011;1581;51.568;6.998;2022-12-16T12:12:11;92.30;;;36.63;;
3141;SDS011;1581;51.568;6.998;2022-12-16T12:15:09;91.27;;;35.27;;
3141;SDS011;1581;51.568;6.998;2022-12-16T12:18:04;90.43;;;35.67;;
3141;SDS011;1581;51.568;6.998;2022-12-16T12:21:00;111.93;;;35.73;;
3141;SDS011;1581;51.568;6.998;2022-12-16T12:23:52;100.10;;;38.20;;
3141;SDS011;1581;51.568;6.998;2022-12-16T12:26:44;97.50;;;37.97;;
3141;SDS011;1581;51.568;6.998;2022-12-16T12:29:44;99.33;;;35.93;;
3141;SDS011;1581;51.568;6.998;2022-12-16T12:32:44;75.07;;;31.87;;
3141;SDS011;1581;51.568;6.998;2022-12-16T12:35:45;80.47;;;30.20;;
3141;SDS011;1581;51.568;6.998;2022-12-16T12:38:46;64.77;;;28.23;;
3141;SDS011;1581;51.568;6.998;2022-12-16T12:41:53;72.27;;;30.47;;
3141;SDS011;1581;51.568;6.998;2022-12-16T12:45:02;68.23;;;28.07;;
3141;SDS011;1581;51.568;6.998;2022-12-16T12:48:03;56.10;;;27.57;;
3141;SDS011;1581;51.568;6.998;2022-12-16T12:50:56;75.90;;;28.70;;
3141;SDS011;1581;51.568;6.998;2022-12-16T12:53:49;81.43;;;32.67;;
3141;SDS011;1581;51.568;6.998;2022-12-16T12:56:46;81.83;;;30.80;;
3141;SDS011;1581;51.568;6.998;2022-12-16T12:59:38;80.50;;;31.50;;
3141;SDS011;1581;51.568;6.998;2022-12-16T13:02:40;81.83;;;30.03;;
3141;SDS011;1581;51.568;6.998;2022-12-16T13:05:33;61.87;;;27.53;;
3141;SDS011;1581;51.568;6.998;2022-12-16T13:08:40;63.63;;;28.17;;
3141;SDS011;1581;51.568;6.998;2022-12-16T13:11:37;82.60;;;29.80;;
3141;SDS011;1581;51.568;6.998;2022-12-16T13:14:52;95.63;;;39.77;;
3141;SDS011;1581;51.568;6.998;2022-12-16T13:24:32;103.63;;;39.00;;
3141;SDS011;1581;51.568;6.998;2022-12-16T13:27:45;101.10;;;38.77;;
3141;SDS011;1581;51.568;6.998;2022-12-16T13:30:37;98.00;;;37.60;;
3141;SDS011;1581;51.568;6.998;2022-12-16T13:33:21;90.90;;;37.07;;
3141;SDS011;1581;51.568;6.998;2022-12-16T13:36:14;86.27;;;35.10;;
3141;SDS011;1581;51.568;6.998;2022-12-16T13:39:20;89.60;;;36.40;;
3141;SDS011;1581;51.568;6.998;2022-12-16T13:45:36;99.23;;;37.60;;
3141;SDS011;1581;51.568;6.998;2022-12-16T13:48:29;111.27;;;35.73;;
3141;SDS011;1581;51.568;6.998;2022-12-16T13:54:59;87.23;;;35.50;;
3141;SDS011;1581;51.568;6.998;2022-12-16T13:58:04;98.10;;;39.27;;
3141;SDS011;1581;51.568;6.998;2022-12-16T14:01:00;109.93;;;42.97;;
3141;SDS011;1581;51.568;6.998;2022-12-16T14:03:52;123.63;;;42.77;;
3141;SDS011;1581;51.568;6.998;2022-12-16T14:06:38;119.30;;;43.63;;
3141;SDS011;1581;51.568;6.998;2022-12-16T14:09:27;118.93;;;43.80;;
3141;SDS011;1581;51.568;6.998;2022-12-16T14:12:24;128.07;;;45.67;;
3141;SDS011;1581;51.568;6.998;2022-12-16T14:15:44;137.00;;;46.80;;
3141;SDS011;1581;51.568;6.998;2022-12-16T14:18:40;128.10;;;44.30;;
3141;SDS011;1581;51.568;6.998;2022-12-16T14:21:37;130.10;;;46.63;;
3141;SDS011;1581;51.568;6.998;2022-12-16T14:24:30;145.67;;;49.37;;
3141;SDS011;1581;51.568;6.998;2022-12-16T14:27:17;127.93;;;46.47;;
3141;SDS011;1581;51.568;6.998;2022-12-16T14:30:13;127.83;;;44.77;;
3141;SDS011;1581;51.568;6.998;2022-12-16T14:33:15;126.73;;;46.13;;
3141;SDS011;1581;51.568;6.998;2022-12-16T14:36:17;139.10;;;47.97;;
3141;SDS011;1581;51.568;6.998;2022-12-16T14:39:08;133.40;;;48.90;;
3141;SDS011;1581;51.568;6.998;2022-12-16T14:41:57;129.50;;;46.77;;
3141;SDS011;1581;51.568;6.998;2022-12-16T14:44:43;146.63;;;49.90;;
3141;SDS011;1581;51.568;6.998;2022-12-16T14:47:30;161.30;;;52.83;;
3141;SDS011;1581;51.568;6.998;2022-12-16T14:50:20;145.57;;;49.80;;
3141;SDS011;1581;51.568;6.998;2022-12-16T14:53:12;147.33;;;49.73;;
3141;SDS011;1581;51.568;6.998;2022-12-16T14:56:10;165.40;;;52.37;;
3141;SDS011;1581;51.568;6.998;2022-12-16T15:02:10;178.10;;;56.20;;
3141;SDS011;1581;51.568;6.998;2022-12-16T15:05:08;189.87;;;60.60;;
3141;SDS011;1581;51.568;6.998;2022-12-16T15:07:54;201.90;;;58.30;;
3141;SDS011;1581;51.568;6.998;2022-12-16T15:10:39;194.50;;;59.50;;
3141;SDS011;1581;51.568;6.998;2022-12-16T15:13:25;210.90;;;64.17;;
3141;SDS011;1581;51.568;6.998;2022-12-16T15:16:13;215.73;;;58.30;;
3141;SDS011;1581;51.568;6.998;2022-12-16T15:19:05;202.80;;;58.97;;
3141;SDS011;1581;51.568;6.998;2022-12-16T15:21:52;192.30;;;53.87;;
3141;SDS011;1581;51.568;6.998;2022-12-16T15:24:37;196.90;;;53.10;;
3141;SDS011;1581;51.568;6.998;2022-12-16T15:27:22;169.83;;;55.00;;
3141;SDS011;1581;51.568;6.998;2022-12-16T15:33:28;175.60;;;44.93;;
3141;SDS011;1581;51.568;6.998;2022-12-16T15:36:19;185.80;;;44.73;;
3141;SDS011;1581;51.568;6.998;2022-12-16T15:39:21;151.30;;;43.80;;
3141;SDS011;1581;51.568;6.998;2022-12-16T15:42:16;147.63;;;47.83;;
3141;SDS011;1581;51.568;6.998;2022-12-16T15:45:16;158.23;;;47.63;;
3141;SDS011;1581;51.568;6.998;2022-12-16T15:48:09;159.90;;;50.97;;
3141;SDS011;1581;51.568;6.998;2022-12-16T15:51:02;172.43;;;51.53;;
3141;SDS011;1581;51.568;6.998;2022-12-16T15:53:59;158.77;;;51.23;;
3141;SDS011;1581;51.568;6.998;2022-12-16T15:56:45;147.53;;;49.77;;
3141;SDS011;1581;51.568;6.998;2022-12-16T15:59:31;152.23;;;53.10;;
3141;SDS011;1581;51.568;6.998;2022-12-16T16:02:19;138.03;;;47.47;;
3141;SDS011;1581;51.568;6.998;2022-12-16T16:05:10;210.00;;;51.00;;
3141;SDS011;1581;51.568;6.998;2022-12-16T16:07:58;163.57;;;47.70;;
3141;SDS011;1581;51.568;6.998;2022-12-16T16:10:43;143.83;;;48.57;;
3141;SDS011;1581;51.568;6.998;2022-12-16T16:13:31;139.93;;;48.60;;
3141;SDS011;1581;51.568;6.998;2022-12-16T16:16:17;151.30;;;48.77;;
3141;SDS011;1581;51.568;6.998;2022-12-16T16:19:07;171.37;;;49.20;;
3141;SDS011;1581;51.568;6.998;2022-12-16T16:21:58;150.40;;;49.27;;
3141;SDS011;1581;51.568;6.998;2022-12-16T16:24:48;133.23;;;49.87;;
3141;SDS011;1581;51.568;6.998;2022-12-16T16:27:33;151.23;;;49.40;;
3141;SDS011;1581;51.568;6.998;2022-12-16T16:30:21;161.57;;;49.40;;
3141;SDS011;1581;51.568;6.998;2022-12-16T16:33:07;158.60;;;48.20;;
3141;SDS011;1581;51.568;6.998;2022-12-16T16:35:53;147.30;;;48.30;;
3141;SDS011;1581;51.568;6.998;2022-12-16T16:38:38;248.17;;;49.83;;
3141;SDS011;1581;51.568;6.998;2022-12-16T16:41:24;168.50;;;49.03;;
3141;SDS011;1581;51.568;6.998;2022-12-16T16:44:09;176.40;;;47.00;;
3141;SDS011;1581;51.568;6.998;2022-12-16T16:46:54;483.70;;;51.27;;
3141;SDS011;1581;51.568;6.998;2022-12-16T16:49:42;386.60;;;52.40;;
3141;SDS011;1581;51.568;6.998;2022-12-16T16:52:30;383.97;;;54.07;;
3141;SDS011;1581;51.568;6.998;2022-12-16T16:55:16;376.70;;;54.10;;
3141;SDS011;1581;51.568;6.998;2022-12-16T16:58:05;220.07;;;48.37;;